Time;durP1;ratioP1;P1;durP2;ratioP2;P2;SDS_P1;SDS_P2;PMS_P1;PMS_P2;Temp;Humidity;BMP_temperature;BMP_pressure;BME280_temperature;BME280_humidity;BME280_pressure;Samples;Min_cycle;Max_cycle;Signal;HPM_P1;HPM_P2
2023/12/11 00:02:26;;;;;;;107.05;32.28;;;19.50;99.90;;;;;;4986500;28;20066;-68
2023/12/11 00:04:52;;;;;;;105.88;33.17;;;18.50;99.90;;;;;;4994416;28;20052;-68
2023/12/11 00:07:18;;;;;;;96.95;31.05;;;19.00;99.90;;;;;;4993585;28;20519;-68
2023/12/11 00:09:43;;;;;;;97.70;31.73;;;19.40;99.90;;;;;;4987056;28;20053;-68
2023/12/11 00:12:09;;;;;;;94.72;32.40;;;19.60;99.90;;;;;;4987203;28;20576;-68
2023/12/11 00:14:35;;;;;;;103.82;33.22;;;18.60;99.90;;;;;;4993555;28;20520;-69
2023/12/11 00:17:01;;;;;;;98.78;32.00;;;19.50;99.90;;;;;;4987883;28;20378;-68
2023/12/11 00:19:27;;;;;;;84.38;31.92;;;18.50;99.90;;;;;;4987423;28;20046;-68
2023/12/11 00:21:53;;;;;;;107.05;33.83;;;19.10;99.90;;;;;;4987054;28;20456;-67
2023/12/11 00:24:19;;;;;;;96.15;33.90;;;19.10;99.90;;;;;;4986973;28;20120;-69
2023/12/11 00:26:45;;;;;;;92.50;32.60;;;18.90;99.90;;;;;;4986237;28;20078;-68
2023/12/11 00:29:10;;;;;;;98.00;34.08;;;19.20;99.90;;;;;;4988655;28;20460;-68
2023/12/11 00:31:36;;;;;;;84.20;32.78;;;18.50;99.90;;;;;;5000746;28;20642;-70
2023/12/11 00:34:01;;;;;;;96.05;33.33;;;19.40;99.90;;;;;;4975753;28;20050;-70
2023/12/11 00:36:27;;;;;;;97.40;34.40;;;19.20;99.90;;;;;;4989460;28;20145;-71
2023/12/11 00:38:53;;;;;;;98.05;34.05;;;19.40;99.90;;;;;;4986939;28;20540;-70
2023/12/11 00:41:18;;;;;;;110.93;34.20;;;19.50;99.90;;;;;;4986290;28;20114;-70
2023/12/11 00:43:44;;;;;;;91.07;33.00;;;18.30;99.90;;;;;;4986119;28;20488;-71
2023/12/11 00:46:14;;;;;;;104.07;34.92;;;19.20;99.90;;;;;;4986110;28;20042;-71
2023/12/11 00:48:40;;;;;;;103.63;35.17;;;18.40;99.90;;;;;;4986131;28;20038;-71
2023/12/11 00:51:05;;;;;;;103.75;34.72;;;19.10;99.90;;;;;;4986899;28;20043;-70
2023/12/11 00:53:31;;;;;;;97.93;35.83;;;19.00;99.90;;;;;;5001972;28;20043;-71
2023/12/11 00:55:56;;;;;;;91.38;34.25;;;19.40;99.90;;;;;;4986610;28;20070;-71
2023/12/11 00:58:22;;;;;;;90.43;35.28;;;19.30;99.90;;;;;;4983321;28;20072;-72
2023/12/11 01:00:47;;;;;;;99.22;35.58;;;19.30;99.90;;;;;;4985749;28;20054;-71
2023/12/11 01:03:13;;;;;;;89.90;31.27;;;19.00;99.90;;;;;;4986623;28;20046;-70
2023/12/11 01:05:39;;;;;;;95.50;33.47;;;19.40;99.90;;;;;;4997825;28;20407;-71
2023/12/11 01:08:04;;;;;;;76.05;33.30;;;19.30;99.90;;;;;;4996210;28;20034;-71
2023/12/11 01:10:30;;;;;;;100.22;33.03;;;19.30;99.90;;;;;;4986328;28;20125;-71
2023/12/11 01:12:55;;;;;;;91.60;33.45;;;18.40;99.90;;;;;;4986233;28;20057;-71
2023/12/11 01:15:21;;;;;;;74.28;31.85;;;18.20;99.90;;;;;;4986338;28;20567;-71
2023/12/11 01:17:46;;;;;;;73.18;27.02;;;18.40;99.90;;;;;;4986096;28;20417;-71
2023/12/11 01:20:12;;;;;;;85.95;33.38;;;19.50;99.90;;;;;;4985697;28;20049;-71
2023/12/11 01:22:38;;;;;;;71.10;33.15;;;19.10;99.90;;;;;;4998642;28;20050;-71
2023/12/11 01:25:03;;;;;;;85.38;32.55;;;19.70;99.90;;;;;;5006251;28;20044;-71
2023/12/11 01:27:29;;;;;;;102.68;33.80;;;18.90;99.90;;;;;;4991081;28;20389;-71
2023/12/11 01:29:55;;;;;;;76.30;32.78;;;19.10;99.90;;;;;;4979241;28;20034;-72
2023/12/11 01:32:20;;;;;;;83.38;31.95;;;19.70;99.90;;;;;;4984700;28;20378;-71
2023/12/11 01:34:46;;;;;;;91.00;32.95;;;18.70;99.90;;;;;;4986419;28;20050;-72
2023/12/11 01:37:11;;;;;;;78.57;32.28;;;19.50;99.90;;;;;;4983953;28;20042;-72
2023/12/11 01:39:37;;;;;;;76.15;33.28;;;19.30;99.90;;;;;;4985660;28;20869;-72
2023/12/11 01:42:03;;;;;;;93.50;34.15;;;20.60;99.90;;;;;;4984512;28;20046;-72
2023/12/11 01:44:30;;;;;;;90.10;34.42;;;19.00;99.90;;;;;;4985826;28;20050;-72
2023/12/11 01:46:56;;;;;;;91.22;33.05;;;20.50;99.90;;;;;;4984442;28;20056;-72
2023/12/11 01:49:21;;;;;;;83.18;34.72;;;19.90;99.90;;;;;;4985557;28;20055;-72
2023/12/11 01:51:48;;;;;;;90.60;33.83;;;19.20;99.90;;;;;;4991152;28;20033;-72
2023/12/11 01:54:14;;;;;;;88.90;33.05;;;18.70;99.90;;;;;;5006870;28;20147;-72
2023/12/11 01:56:41;;;;;;;89.43;33.53;;;18.80;99.90;;;;;;4994534;28;20512;-73
2023/12/11 01:59:06;;;;;;;88.75;34.13;;;19.70;99.90;;;;;;4987700;28;20081;-73
2023/12/11 02:01:34;;;;;;;100.47;35.88;;;18.70;99.90;;;;;;4983246;28;20054;-73
2023/12/11 02:04:00;;;;;;;88.57;34.60;;;19.80;99.90;;;;;;4987584;28;20129;-73
2023/12/11 02:06:25;;;;;;;89.88;34.15;;;19.00;99.90;;;;;;4987401;28;20563;-73
2023/12/11 02:08:51;;;;;;;98.63;36.40;;;19.80;99.90;;;;;;4987010;28;20038;-73
2023/12/11 02:11:17;;;;;;;94.25;34.05;;;19.60;99.90;;;;;;4987426;28;20112;-73
2023/12/11 02:13:43;;;;;;;87.18;33.22;;;19.00;99.90;;;;;;4970844;28;20481;-74
2023/12/11 02:16:14;;;;;;;94.57;34.55;;;19.20;99.90;;;;;;4988452;28;20038;-73
2023/12/11 02:18:40;;;;;;;88.97;32.70;;;19.40;99.90;;;;;;4988773;28;20485;-74
2023/12/11 02:21:06;;;;;;;90.97;33.70;;;19.70;99.90;;;;;;4990783;28;20066;-74
2023/12/11 02:23:45;;;;;;;88.78;34.30;;;19.00;99.90;;;;;;4986459;28;20500;-74
2023/12/11 02:26:15;;;;;;;94.28;35.33;;;19.90;99.90;;;;;;4986545;28;20200;-74
2023/12/11 02:28:41;;;;;;;96.15;34.80;;;20.50;99.90;;;;;;4986136;28;20401;-74
2023/12/11 02:31:07;;;;;;;101.68;35.70;;;19.40;99.90;;;;;;4986709;28;20043;-75
2023/12/11 02:33:33;;;;;;;90.07;32.42;;;19.60;99.90;;;;;;4988341;28;20034;-74
2023/12/11 02:35:58;;;;;;;83.88;32.28;;;19.60;99.90;;;;;;4987160;28;20597;-75
2023/12/11 02:38:24;;;;;;;75.85;34.03;;;19.50;99.90;;;;;;4986846;28;20485;-75
2023/12/11 02:40:49;;;;;;;90.93;34.50;;;18.90;99.90;;;;;;4986292;28;20053;-74
2023/12/11 02:43:15;;;;;;;98.18;35.08;;;19.50;99.90;;;;;;4986601;28;20523;-74
2023/12/11 02:45:42;;;;;;;98.82;35.75;;;19.00;99.90;;;;;;4988414;28;20093;-75
2023/12/11 02:48:08;;;;;;;92.40;35.28;;;19.10;99.90;;;;;;4986636;28;20476;-75
2023/12/11 02:50:34;;;;;;;93.03;34.40;;;20.00;99.90;;;;;;4970509;28;20042;-75
2023/12/11 02:53:01;;;;;;;94.72;35.50;;;19.00;99.90;;;;;;4988680;28;20054;-76
2023/12/11 02:55:27;;;;;;;86.22;34.00;;;19.80;99.90;;;;;;4987405;28;20053;-76
2023/12/11 02:57:56;;;;;;;97.55;35.10;;;19.80;99.90;;;;;;4986545;28;20046;-76
2023/12/11 03:00:22;;;;;;;82.10;34.60;;;19.60;99.90;;;;;;4989568;28;20053;-75
2023/12/11 03:02:48;;;;;;;89.95;35.03;;;18.90;99.90;;;;;;4984340;28;20062;-76
2023/12/11 03:05:13;;;;;;;111.50;36.17;;;19.50;99.90;;;;;;5002896;28;20046;-76
2023/12/11 03:07:39;;;;;;;88.72;34.90;;;19.80;99.90;;;;;;4969443;28;20047;-76
2023/12/11 03:10:05;;;;;;;104.22;34.80;;;19.40;99.90;;;;;;4985961;28;20061;-76
2023/12/11 03:12:30;;;;;;;93.90;34.95;;;19.90;99.90;;;;;;4986461;28;20046;-77
2023/12/11 03:14:56;;;;;;;99.43;34.80;;;18.70;99.90;;;;;;4986955;28;20038;-77
2023/12/11 03:17:21;;;;;;;106.35;35.67;;;19.70;99.90;;;;;;4986295;28;20049;-76
2023/12/11 03:19:47;;;;;;;104.47;35.25;;;19.30;99.90;;;;;;4986078;28;20046;-77
2023/12/11 03:22:12;;;;;;;118.05;36.80;;;19.20;99.90;;;;;;4986735;28;20038;-77
2023/12/11 03:24:38;;;;;;;95.82;34.42;;;19.20;99.90;;;;;;4970869;28;20144;-77
2023/12/11 03:27:04;;;;;;;91.00;35.97;;;19.90;99.90;;;;;;4986503;28;20049;-77
2023/12/11 03:29:29;;;;;;;103.82;35.00;;;20.00;99.90;;;;;;4979705;28;20050;-77
2023/12/11 03:31:55;;;;;;;87.65;34.40;;;20.70;99.90;;;;;;4986550;28;20052;-77
2023/12/11 03:34:20;;;;;;;91.32;35.17;;;19.10;99.90;;;;;;4986843;28;20155;-77
2023/12/11 03:36:46;;;;;;;100.70;35.65;;;19.00;99.90;;;;;;4986495;28;20034;-77
2023/12/11 03:39:12;;;;;;;88.18;34.88;;;18.80;99.90;;;;;;4985799;28;20047;-78
2023/12/11 03:41:38;;;;;;;82.85;34.03;;;18.60;99.90;;;;;;4986099;28;20050;-77
2023/12/11 03:44:04;;;;;;;90.03;34.08;;;19.70;99.90;;;;;;4985944;28;20104;-78
2023/12/11 03:46:30;;;;;;;102.47;36.15;;;18.90;99.90;;;;;;4985983;28;20042;-78
2023/12/11 03:48:55;;;;;;;94.85;34.72;;;19.20;99.90;;;;;;4986137;28;20034;-78
2023/12/11 03:51:21;;;;;;;78.72;33.72;;;19.30;99.90;;;;;;5005509;28;20124;-78
2023/12/11 03:53:46;;;;;;;96.93;35.63;;;19.40;99.90;;;;;;5005360;28;20093;-78
2023/12/11 03:56:12;;;;;;;100.13;34.95;;;19.00;99.90;;;;;;4991385;28;20034;-78
2023/12/11 03:58:38;;;;;;;89.38;34.25;;;19.50;99.90;;;;;;4985853;28;20496;-78
2023/12/11 04:01:03;;;;;;;106.00;38.95;;;20.40;99.90;;;;;;5002118;28;20420;-80
2023/12/11 04:03:31;;;;;;;105.65;35.75;;;19.00;99.90;;;;;;4985542;28;20050;-81
2023/12/11 04:05:57;;;;;;;94.90;35.75;;;19.80;99.90;;;;;;5002188;28;20042;-81
2023/12/11 04:08:22;;;;;;;92.68;37.15;;;20.80;99.90;;;;;;5001059;28;20039;-81
2023/12/11 04:10:48;;;;;;;101.22;35.72;;;20.90;99.90;;;;;;5001909;28;20085;-80
2023/12/11 04:13:14;;;;;;;90.15;35.30;;;19.40;99.90;;;;;;4969106;28;20564;-80
2023/12/11 04:15:40;;;;;;;106.90;35.17;;;19.00;99.90;;;;;;4986019;28;20795;-81
2023/12/11 04:18:05;;;;;;;80.15;34.22;;;18.90;99.90;;;;;;4986152;28;20126;-81
2023/12/11 04:20:31;;;;;;;87.95;34.97;;;19.00;99.90;;;;;;4986676;28;20789;-81
2023/12/11 04:22:56;;;;;;;98.03;36.83;;;18.70;99.90;;;;;;4989934;28;20578;-81
2023/12/11 04:25:22;;;;;;;91.22;35.67;;;19.70;99.90;;;;;;4987112;28;20069;-80
2023/12/11 04:27:47;;;;;;;77.40;35.08;;;20.10;99.90;;;;;;4985274;28;20046;-81
2023/12/11 04:30:13;;;;;;;86.88;33.55;;;21.10;99.90;;;;;;5001734;28;20042;-81
2023/12/11 04:32:39;;;;;;;94.65;33.17;;;19.70;99.90;;;;;;4984750;28;20168;-81
2023/12/11 04:35:05;;;;;;;92.10;34.45;;;19.10;99.90;;;;;;5001621;28;20125;-81
2023/12/11 04:37:30;;;;;;;85.63;33.88;;;18.90;99.90;;;;;;4987140;28;20038;-81
2023/12/11 04:39:56;;;;;;;81.72;36.53;;;19.30;99.90;;;;;;5001898;28;20057;-81
2023/12/11 04:42:22;;;;;;;94.90;35.05;;;18.70;99.90;;;;;;4984666;28;20046;-81
2023/12/11 04:44:47;;;;;;;85.30;34.17;;;19.40;99.90;;;;;;4985232;28;20482;-81
2023/12/11 04:47:15;;;;;;;74.80;33.90;;;20.70;99.90;;;;;;5001141;28;20051;-81
2023/12/11 04:49:42;;;;;;;81.63;33.10;;;20.30;99.90;;;;;;4985445;28;20061;-81
2023/12/11 04:52:08;;;;;;;72.75;32.42;;;19.20;99.90;;;;;;4984941;28;20456;-81
2023/12/11 04:54:34;;;;;;;90.07;33.70;;;20.40;99.90;;;;;;5001040;28;20034;-81
2023/12/11 04:56:59;;;;;;;77.45;32.80;;;19.70;99.90;;;;;;4986217;28;20046;-82
2023/12/11 04:59:25;;;;;;;82.20;35.00;;;19.40;99.90;;;;;;4984390;28;20463;-81
2023/12/11 05:01:50;;;;;;;85.85;34.90;;;19.30;99.90;;;;;;5002150;28;20062;-82
2023/12/11 05:04:16;;;;;;;80.20;34.05;;;19.00;99.90;;;;;;4984951;28;20054;-82
2023/12/11 05:06:41;;;;;;;86.65;34.30;;;20.50;99.90;;;;;;4984604;28;20053;-82
2023/12/11 05:09:07;;;;;;;74.13;34.17;;;18.90;99.90;;;;;;4984537;28;20447;-81
2023/12/11 05:11:33;;;;;;;81.47;35.22;;;20.50;99.90;;;;;;4984268;28;20046;-81
2023/12/11 05:13:58;;;;;;;87.07;34.15;;;18.70;99.90;;;;;;4993272;28;20058;-81
2023/12/11 05:16:24;;;;;;;86.32;34.83;;;19.00;99.90;;;;;;5008299;28;20539;-81
2023/12/11 05:18:49;;;;;;;88.65;33.88;;;20.50;99.90;;;;;;5001220;28;20112;-81
2023/12/11 05:21:15;;;;;;;77.35;36.08;;;18.80;99.90;;;;;;4985072;28;20057;-81
2023/12/11 05:23:40;;;;;;;91.93;36.17;;;19.60;99.90;;;;;;4984713;28;20125;-81
2023/12/11 05:26:06;;;;;;;88.20;36.17;;;19.10;99.90;;;;;;4984910;28;20058;-81
2023/12/11 05:28:31;;;;;;;83.10;36.25;;;19.00;99.90;;;;;;4990832;28;20047;-81
2023/12/11 05:30:57;;;;;;;78.43;34.10;;;18.90;99.90;;;;;;4999635;28;20133;-81
2023/12/11 05:33:23;;;;;;;79.57;34.88;;;19.30;99.90;;;;;;5009017;28;20522;-81
2023/12/11 05:35:48;;;;;;;83.20;34.95;;;18.80;99.90;;;;;;5001541;28;20038;-81
2023/12/11 05:38:14;;;;;;;81.60;35.55;;;18.60;99.90;;;;;;5004756;28;20512;-81
2023/12/11 05:40:39;;;;;;;88.57;36.13;;;20.40;99.90;;;;;;4989235;28;20042;-82
2023/12/11 05:43:05;;;;;;;88.38;36.05;;;19.60;99.90;;;;;;4988235;28;20052;-82
2023/12/11 05:45:30;;;;;;;104.00;35.38;;;18.70;99.90;;;;;;4989747;28;20510;-82
2023/12/11 05:47:56;;;;;;;84.22;36.60;;;18.90;99.90;;;;;;4989677;28;20050;-82
2023/12/11 05:50:22;;;;;;;91.68;35.05;;;18.80;99.90;;;;;;4989946;28;20118;-82
2023/12/11 05:52:48;;;;;;;93.25;34.42;;;19.40;99.90;;;;;;4988885;28;20523;-82
2023/12/11 05:55:14;;;;;;;85.30;33.55;;;20.00;99.90;;;;;;4988660;28;20066;-82
2023/12/11 05:57:39;;;;;;;93.43;34.88;;;18.20;99.90;;;;;;4988632;28;20477;-82
2023/12/11 06:00:05;;;;;;;79.82;34.60;;;18.30;99.90;;;;;;4986208;28;20034;-83
2023/12/11 06:02:31;;;;;;;72.75;33.45;;;18.60;99.90;;;;;;4987649;28;20043;-83
2023/12/11 06:04:56;;;;;;;86.50;36.03;;;19.60;99.90;;;;;;4988044;28;20046;-83
2023/12/11 06:07:22;;;;;;;88.72;35.40;;;19.90;99.90;;;;;;4987952;28;20061;-83
2023/12/11 06:09:48;;;;;;;79.38;33.42;;;18.50;99.90;;;;;;4987817;28;20065;-83
2023/12/11 06:12:13;;;;;;;79.25;32.55;;;18.70;99.90;;;;;;4986518;28;20042;-83
2023/12/11 06:14:40;;;;;;;75.05;31.63;;;18.90;99.90;;;;;;5004502;28;20077;-84
2023/12/11 06:17:05;;;;;;;73.43;32.83;;;18.80;99.90;;;;;;4988257;28;20046;-83
2023/12/11 06:19:31;;;;;;;84.03;34.60;;;18.30;99.90;;;;;;4982569;28;20030;-83
2023/12/11 06:21:57;;;;;;;83.50;34.10;;;21.70;99.90;;;;;;4981930;28;20042;-82
2023/12/11 06:24:22;;;;;;;79.95;34.38;;;19.60;99.90;;;;;;4985907;28;20136;-82
2023/12/11 06:26:48;;;;;;;84.00;34.25;;;19.60;99.90;;;;;;4971000;28;20508;-82
2023/12/11 06:29:13;;;;;;;80.75;35.40;;;19.80;99.90;;;;;;4987258;28;20050;-83
2023/12/11 06:31:39;;;;;;;81.60;33.83;;;19.70;99.90;;;;;;4986282;28;20069;-83
2023/12/11 06:34:05;;;;;;;80.20;33.92;;;19.00;99.90;;;;;;4985636;28;20667;-82
2023/12/11 06:36:31;;;;;;;79.43;33.13;;;19.40;99.90;;;;;;4986315;28;20034;-82
2023/12/11 06:38:56;;;;;;;72.70;31.80;;;18.50;99.90;;;;;;4986376;28;20030;-82
2023/12/11 06:41:22;;;;;;;94.00;33.53;;;19.00;99.90;;;;;;4986474;28;20116;-82
2023/12/11 06:43:49;;;;;;;77.68;33.17;;;19.20;99.90;;;;;;5003302;28;20081;-82
2023/12/11 06:46:15;;;;;;;78.55;32.42;;;19.30;99.90;;;;;;4985412;28;20057;-82
2023/12/11 06:48:40;;;;;;;62.80;31.77;;;19.60;99.90;;;;;;4987267;28;20497;-82
2023/12/11 06:51:06;;;;;;;74.13;32.25;;;18.50;99.90;;;;;;4986121;28;20435;-82
2023/12/11 06:53:32;;;;;;;74.40;32.45;;;19.30;99.90;;;;;;4985546;28;20404;-82
2023/12/11 06:55:57;;;;;;;68.88;30.83;;;19.00;99.90;;;;;;5003992;28;20046;-82
2023/12/11 06:58:23;;;;;;;57.40;30.48;;;20.70;99.90;;;;;;4986829;28;20038;-84
2023/12/11 07:00:50;;;;;;;63.47;31.55;;;19.20;99.90;;;;;;4983636;28;20042;-83
2023/12/11 07:03:16;;;;;;;62.72;31.88;;;18.50;99.90;;;;;;4972261;28;20042;-84
2023/12/11 07:05:46;;;;;;;59.50;30.25;;;20.80;99.90;;;;;;4995663;28;20448;-83
2023/12/11 07:08:11;;;;;;;59.47;30.17;;;19.80;99.90;;;;;;5007234;28;20104;-83
2023/12/11 07:10:38;;;;;;;56.28;30.35;;;19.40;99.90;;;;;;4981409;28;20253;-82
2023/12/11 07:13:04;;;;;;;55.45;29.02;;;20.30;99.90;;;;;;4968766;28;20046;-83
2023/12/11 07:15:29;;;;;;;59.15;29.80;;;19.80;99.90;;;;;;4983238;28;20038;-83
2023/12/11 07:17:56;;;;;;;66.18;30.27;;;18.50;99.90;;;;;;4997133;28;20030;-83
2023/12/11 07:20:22;;;;;;;61.85;28.67;;;19.60;99.90;;;;;;4997501;28;20042;-84
2023/12/11 07:22:51;;;;;;;69.53;29.23;;;19.90;99.90;;;;;;4984306;28;20046;-83
2023/12/11 07:25:17;;;;;;;75.43;29.70;;;18.50;99.90;;;;;;4984578;28;20056;-82
2023/12/11 07:27:43;;;;;;;79.82;32.45;;;19.40;99.90;;;;;;4984100;28;20046;-84
2023/12/11 07:30:09;;;;;;;67.47;28.85;;;19.40;99.90;;;;;;4982195;28;20127;-83
2023/12/11 07:32:36;;;;;;;73.07;30.63;;;18.60;99.90;;;;;;4966274;28;20415;-81
2023/12/11 07:35:02;;;;;;;63.03;29.50;;;19.50;99.90;;;;;;4984600;28;20065;-81
2023/12/11 07:37:28;;;;;;;71.95;28.30;;;19.20;99.90;;;;;;4984571;28;20038;-81
2023/12/11 07:39:53;;;;;;;69.97;29.83;;;18.80;99.90;;;;;;4984306;28;20372;-81
2023/12/11 07:42:19;;;;;;;76.50;28.63;;;19.30;99.90;;;;;;4967276;28;20093;-81
2023/12/11 07:44:45;;;;;;;65.18;27.67;;;19.20;99.90;;;;;;4982584;28;20088;-81
2023/12/11 07:47:10;;;;;;;74.40;28.30;;;19.30;99.90;;;;;;4983002;28;20132;-79
2023/12/11 07:49:36;;;;;;;63.53;28.15;;;19.60;99.90;;;;;;4983919;28;20081;-79
2023/12/11 07:52:02;;;;;;;70.05;28.05;;;18.70;99.90;;;;;;4982871;28;20048;-80
2023/12/11 07:54:28;;;;;;;71.57;25.85;;;19.40;99.90;;;;;;4983996;28;20077;-80
2023/12/11 07:56:53;;;;;;;57.28;26.35;;;20.00;99.90;;;;;;4997822;28;20136;-79
2023/12/11 07:59:19;;;;;;;63.22;26.45;;;18.40;99.90;;;;;;4982842;28;20050;-79
2023/12/11 08:01:45;;;;;;;59.45;26.63;;;18.50;99.90;;;;;;4980688;28;20050;-79
2023/12/11 08:04:10;;;;;;;50.38;27.23;;;19.60;99.90;;;;;;4977875;28;20161;-79
2023/12/11 08:06:41;;;;;;;48.15;27.10;;;19.80;99.90;;;;;;4981893;28;20493;-81
2023/12/11 08:09:07;;;;;;;56.90;26.75;;;18.60;99.90;;;;;;5015728;28;20147;-79
2023/12/11 08:11:33;;;;;;;49.72;28.02;;;21.00;99.90;;;;;;4983351;28;20050;-83
2023/12/11 08:13:59;;;;;;;48.42;26.65;;;20.00;99.90;;;;;;4982083;28;20417;-84
2023/12/11 08:16:24;;;;;;;45.95;23.35;;;19.90;99.90;;;;;;4978644;28;20041;-79
2023/12/11 08:18:50;;;;;;;46.67;24.60;;;18.90;99.90;;;;;;4966457;28;20444;-82
2023/12/11 08:21:19;;;;;;;54.38;25.52;;;19.90;99.90;;;;;;5000406;28;20376;-82
2023/12/11 08:23:46;;;;;;;52.00;25.45;;;20.80;99.90;;;;;;5014298;28;20129;-81
2023/12/11 08:26:17;;;;;;;57.00;26.10;;;19.80;99.90;;;;;;4981962;28;20057;-82
2023/12/11 08:28:42;;;;;;;42.63;26.27;;;19.50;99.90;;;;;;4983862;28;20097;-82
2023/12/11 08:31:08;;;;;;;47.65;27.45;;;19.40;99.90;;;;;;4982570;28;20050;-80
2023/12/11 08:33:33;;;;;;;61.33;38.67;;;19.10;99.90;;;;;;4983257;28;20179;-81
2023/12/11 08:35:59;;;;;;;50.40;26.27;;;20.10;99.90;;;;;;4965486;28;20637;-81
2023/12/11 08:38:25;;;;;;;48.72;26.02;;;19.80;99.90;;;;;;4982603;28;20571;-81
2023/12/11 08:40:51;;;;;;;44.67;26.20;;;19.70;99.90;;;;;;4999077;28;20105;-81
2023/12/11 08:43:16;;;;;;;44.47;25.92;;;18.90;99.90;;;;;;4980772;28;20440;-81
2023/12/11 08:45:42;;;;;;;44.95;25.90;;;20.00;99.90;;;;;;4982601;28;20775;-81
2023/12/11 08:48:08;;;;;;;57.10;28.20;;;20.10;99.90;;;;;;4981957;28;20072;-81
2023/12/11 08:50:34;;;;;;;56.03;30.92;;;20.00;99.90;;;;;;4998071;28;20156;-81
2023/12/11 08:53:00;;;;;;;53.22;27.33;;;22.20;99.90;;;;;;4995082;28;20893;-80
2023/12/11 08:55:27;;;;;;;59.05;29.27;;;18.60;99.90;;;;;;4978897;28;20080;-81
2023/12/11 08:57:53;;;;;;;54.17;28.20;;;19.80;99.90;;;;;;4978864;28;20043;-81
2023/12/11 09:00:19;;;;;;;61.22;29.08;;;18.50;99.90;;;;;;4980636;28;20038;-80
2023/12/11 09:02:44;;;;;;;56.83;28.75;;;19.70;99.90;;;;;;4982759;28;20523;-82
2023/12/11 09:05:10;;;;;;;63.50;29.25;;;19.80;99.90;;;;;;4971552;28;20501;-81
2023/12/11 09:07:35;;;;;;;64.22;29.48;;;19.70;99.90;;;;;;4972710;28;20129;-81
2023/12/11 09:10:02;;;;;;;60.78;30.17;;;19.10;99.90;;;;;;4983635;28;20177;-81
2023/12/11 09:12:28;;;;;;;64.35;28.50;;;20.00;99.90;;;;;;4981114;28;20042;-81
2023/12/11 09:14:53;;;;;;;62.00;31.38;;;19.30;99.90;;;;;;4987415;28;20424;-81
2023/12/11 09:17:19;;;;;;;60.33;29.35;;;18.90;99.90;;;;;;4984381;28;20042;-80
2023/12/11 09:19:45;;;;;;;63.75;30.90;;;20.10;99.90;;;;;;4984827;28;20042;-80
2023/12/11 09:22:11;;;;;;;55.88;31.20;;;19.80;99.90;;;;;;4997837;28;20136;-81
2023/12/11 09:24:37;;;;;;;67.43;30.25;;;19.40;99.90;;;;;;4983723;28;20049;-81
2023/12/11 09:27:04;;;;;;;62.03;29.85;;;19.60;99.90;;;;;;4986539;28;20041;-81
2023/12/11 09:29:29;;;;;;;60.45;30.75;;;19.80;99.90;;;;;;4981343;28;20046;-81
2023/12/11 09:31:55;;;;;;;53.22;29.17;;;19.90;99.90;;;;;;4985583;28;20042;-81
2023/12/11 09:34:20;;;;;;;53.45;28.58;;;18.90;99.90;;;;;;4985655;28;20038;-80
2023/12/11 09:36:46;;;;;;;59.70;29.52;;;20.50;99.90;;;;;;4984506;28;20047;-81
2023/12/11 09:39:12;;;;;;;58.28;28.55;;;18.60;99.90;;;;;;4986654;28;20073;-81
2023/12/11 09:41:39;;;;;;;59.85;31.88;;;18.80;99.90;;;;;;4984773;28;20039;-81
2023/12/11 09:44:05;;;;;;;52.45;29.52;;;20.00;99.90;;;;;;4987740;28;20556;-82
2023/12/11 09:46:37;;;;;;;62.63;30.85;;;19.60;99.90;;;;;;5002178;28;20133;-81
2023/12/11 09:49:03;;;;;;;57.88;29.08;;;18.70;99.90;;;;;;5001931;28;20037;-81
2023/12/11 09:51:29;;;;;;;59.83;30.55;;;18.90;99.90;;;;;;5000132;28;20124;-80
2023/12/11 09:53:56;;;;;;;52.80;30.15;;;20.10;99.90;;;;;;4987600;28;20106;-81
2023/12/11 09:56:22;;;;;;;57.85;31.58;;;19.90;99.90;;;;;;5001341;28;20500;-81
2023/12/11 09:58:49;;;;;;;48.10;27.63;;;20.00;99.90;;;;;;4983198;28;20047;-81
2023/12/11 10:01:16;;;;;;;44.88;26.23;;;19.20;99.90;;;;;;4985163;28;20061;-81
2023/12/11 10:03:41;;;;;;;45.67;27.15;;;19.10;99.90;;;;;;4986237;28;20101;-81
2023/12/11 10:06:07;;;;;;;43.17;26.73;;;19.80;99.90;;;;;;4984058;28;20042;-81
2023/12/11 10:08:43;;;;;;;42.67;27.25;;;18.90;99.90;;;;;;4986275;28;20141;-81
2023/12/11 10:11:14;;;;;;;;;;;19.00;99.90;;;;;;4986797;28;20113;-82
2023/12/11 10:13:39;;;;;;;44.30;28.80;;;19.90;99.90;;;;;;4984658;28;19948;-81
2023/12/11 10:16:25;;;;;;;43.75;26.30;;;20.00;99.90;;;;;;4983145;28;20038;-81
2023/12/11 10:18:50;;;;;;;36.85;24.42;;;19.70;99.90;;;;;;4984364;28;20046;-81
2023/12/11 10:21:16;;;;;;;39.20;24.10;;;19.90;99.90;;;;;;4981055;28;20092;-81
2023/12/11 10:23:42;;;;;;;34.55;24.30;;;19.70;99.90;;;;;;4983344;28;20100;-81
2023/12/11 10:26:08;;;;;;;43.95;27.33;;;19.10;99.90;;;;;;4984448;28;20357;-80
2023/12/11 10:28:34;;;;;;;38.22;25.67;;;19.00;99.90;;;;;;4987508;28;20045;-81
2023/12/11 10:31:02;;;;;;;45.53;26.75;;;19.80;99.90;;;;;;5000869;28;20097;-82
2023/12/11 10:33:32;;;;;;;45.47;28.15;;;19.90;99.90;;;;;;4986814;28;20428;-82
2023/12/11 10:36:12;;;;;;;42.13;28.63;;;19.60;99.90;;;;;;5002674;28;20197;-81
2023/12/11 10:38:38;;;;;;;50.05;29.02;;;19.80;99.90;;;;;;4969958;28;20043;-83
2023/12/11 10:41:05;;;;;;;55.90;32.13;;;18.80;99.90;;;;;;4984615;28;20046;-83
2023/12/11 10:43:43;;;;;;;67.38;34.00;;;19.00;99.90;;;;;;4986569;28;20513;-82
2023/12/11 10:46:09;;;;;;;67.93;35.75;;;19.50;99.90;;;;;;4987451;28;20046;-83
2023/12/11 10:48:36;;;;;;;64.15;34.30;;;20.30;99.90;;;;;;4986859;28;20489;-84
2023/12/11 10:51:05;;;;;;;61.70;31.83;;;19.30;99.90;;;;;;4985660;28;20053;-83
2023/12/11 10:53:33;;;;;;;57.78;32.30;;;19.80;99.90;;;;;;4982299;28;20489;-83
2023/12/11 10:56:00;;;;;;;71.13;31.05;;;20.60;99.90;;;;;;4986003;28;20130;-82
2023/12/11 10:58:27;;;;;;;67.60;31.05;;;19.90;99.90;;;;;;5001241;28;20813;-83
2023/12/11 11:00:55;;;;;;;66.78;30.08;;;19.00;99.90;;;;;;5002290;28;20081;-83
2023/12/11 11:03:22;;;;;;;58.63;30.67;;;18.80;99.90;;;;;;4987952;28;20057;-82
2023/12/11 11:05:49;;;;;;;56.53;29.30;;;19.10;99.90;;;;;;4987207;28;20476;-83
2023/12/11 11:08:30;;;;;;;52.17;29.52;;;20.30;99.90;;;;;;4985653;28;20823;-82
2023/12/11 11:11:17;;;;;;;42.75;27.55;;;18.80;99.90;;;;;;4982677;28;20042;-83
2023/12/11 11:14:17;;;;;;;43.58;28.05;;;19.90;99.90;;;;;;4983932;28;20061;-83
2023/12/11 11:16:57;;;;;;;39.10;25.35;;;18.70;99.90;;;;;;4985102;28;20118;-82
2023/12/11 11:19:24;;;;;;;48.55;25.02;;;18.90;99.90;;;;;;5000612;28;20050;-83
2023/12/11 11:22:03;;;;;;;42.28;24.42;;;19.10;99.90;;;;;;4986280;28;20050;-81
2023/12/11 11:24:30;;;;;;;44.75;24.48;;;19.90;99.90;;;;;;5000760;28;20397;-82
2023/12/11 11:26:56;;;;;;;39.88;25.35;;;19.00;99.90;;;;;;4983644;28;20046;-82
2023/12/11 11:29:44;;;;;;;37.15;25.65;;;21.10;99.90;;;;;;4984221;28;20050;-82
2023/12/11 11:32:11;;;;;;;36.78;24.98;;;18.70;99.90;;;;;;4998790;28;20421;-82
2023/12/11 11:34:39;;;;;;;44.38;27.33;;;21.10;99.90;;;;;;5000953;28;20762;-82
2023/12/11 11:37:06;;;;;;;38.22;26.05;;;19.70;99.90;;;;;;5001528;28;20107;-81
2023/12/11 11:39:59;;;;;;;40.90;25.55;;;19.80;99.90;;;;;;4981407;28;20402;-81
2023/12/11 11:42:32;;;;;;;32.30;23.85;;;19.70;99.90;;;;;;4985417;28;20476;-81
2023/12/11 11:45:07;;;;;;;38.72;24.63;;;18.70;99.90;;;;;;4984603;28;20046;-82
2023/12/11 11:47:34;;;;;;;39.85;24.50;;;18.80;99.90;;;;;;5001414;28;20045;-83
2023/12/11 11:50:09;;;;;;;40.55;26.10;;;20.20;99.90;;;;;;4984178;28;20101;-82
2023/12/11 11:52:37;;;;;;;39.95;25.55;;;19.30;99.90;;;;;;4982409;28;20042;-81
2023/12/11 11:55:13;;;;;;;34.17;25.05;;;19.10;99.90;;;;;;4984618;28;20050;-83
2023/12/11 11:57:39;;;;;;;;;;;19.30;99.90;;;;;;4981885;28;20038;-82
2023/12/11 12:00:06;;;;;;;29.10;22.75;;;19.50;99.90;;;;;;5003407;28;19925;-83
2023/12/11 12:02:32;;;;;;;25.02;22.50;;;19.40;99.90;;;;;;5002070;28;20088;-82
2023/12/11 12:05:08;;;;;;;28.63;20.10;;;18.90;99.90;;;;;;4984884;28;20042;-83
2023/12/11 12:07:38;;;;;;;28.52;24.40;;;19.40;99.90;;;;;;4985474;28;20065;-82
2023/12/11 12:10:05;;;;;;;32.33;25.50;;;19.00;99.90;;;;;;4985883;28;20452;-82
2023/12/11 12:12:32;;;;;;;38.17;23.98;;;19.40;99.90;;;;;;4985843;28;20054;-82
2023/12/11 12:15:10;;;;;;;35.53;23.92;;;18.90;99.90;;;;;;4985341;28;20232;-82
2023/12/11 12:17:39;;;;;;;25.02;21.80;;;19.30;99.90;;;;;;4970085;28;20436;-82
2023/12/11 12:20:12;;;;;;;22.83;19.83;;;19.10;99.90;;;;;;4986156;28;20080;-81
2023/12/11 12:22:38;;;;;;;30.52;21.35;;;18.90;99.90;;;;;;5001927;28;20092;-82
2023/12/11 12:25:16;;;;;;;28.05;19.17;;;19.50;99.90;;;;;;4984608;28;20046;-81